createdAt,value
2023-12-11T00:02:20.919Z,97167.16
2023-12-11T00:04:48.564Z,97151.22
2023-12-11T00:07:16.309Z,97151.94
2023-12-11T00:09:44.351Z,97137.91
2023-12-11T00:12:13.407Z,97144.19
2023-12-11T00:14:41.130Z,97131.19
2023-12-11T00:17:08.935Z,97133.56
2023-12-11T00:19:36.656Z,97146.56
2023-12-11T00:22:04.623Z,97138.44
2023-12-11T00:24:32.435Z,97142.53
2023-12-11T00:27:00.225Z,97135.97
2023-12-11T00:29:29.276Z,97130.72
2023-12-11T00:31:56.987Z,97140.75
2023-12-11T00:34:24.809Z,97132.13
2023-12-11T00:36:52.550Z,97126.72
2023-12-11T00:39:20.267Z,97109.38
2023-12-11T00:41:47.951Z,97118.34
2023-12-11T00:44:15.676Z,97120.81
2023-12-11T00:46:44.791Z,97112.59
2023-12-11T00:49:12.608Z,97110.94
2023-12-11T00:51:40.387Z,97112.19
2023-12-11T00:54:08.124Z,97124.72
2023-12-11T00:56:35.851Z,97124.13
2023-12-11T00:59:03.543Z,97119.97
2023-12-11T01:01:31.302Z,97142.31
2023-12-11T01:04:00.431Z,97148.84
2023-12-11T01:06:28.162Z,97143.59
2023-12-11T01:08:55.876Z,97137.88
2023-12-11T01:11:23.523Z,97134.59
2023-12-11T01:13:51.191Z,97128.50
2023-12-11T01:16:19.019Z,97142.19
2023-12-11T01:18:46.806Z,97134.34
2023-12-11T01:21:15.969Z,97118.53
2023-12-11T01:23:43.585Z,97116.16
2023-12-11T01:26:11.241Z,97116.81
2023-12-11T01:28:38.977Z,97122.00
2023-12-11T01:31:06.774Z,97116.47
2023-12-11T01:33:34.488Z,97118.72
2023-12-11T01:36:02.224Z,97117.72
2023-12-11T01:38:31.246Z,97101.63
2023-12-11T01:40:58.893Z,97085.44
2023-12-11T01:43:26.640Z,97083.84
2023-12-11T01:46:02.510Z,97091.25
2023-12-11T01:48:30.446Z,97086.81
2023-12-11T01:50:58.392Z,97101.72
2023-12-11T01:53:28.073Z,97093.03
2023-12-11T01:55:57.865Z,97073.34
2023-12-11T01:58:25.828Z,97064.81
2023-12-11T02:00:53.584Z,97071.53
2023-12-11T02:03:21.403Z,97063.78
2023-12-11T02:05:49.921Z,97071.44
2023-12-11T02:08:17.603Z,97074.09
2023-12-11T02:10:45.500Z,97058.72
2023-12-11T02:13:15.110Z,97053.47
2023-12-11T02:15:45.432Z,97037.41
2023-12-11T02:18:15.635Z,97053.50
2023-12-11T02:20:45.064Z,97054.78
2023-12-11T02:23:26.154Z,97061.94
2023-12-11T02:26:02.841Z,97049.38
2023-12-11T02:28:30.612Z,97049.31
2023-12-11T02:30:58.308Z,97055.38
2023-12-11T02:33:26.004Z,97047.97
2023-12-11T02:35:53.726Z,97025.47
2023-12-11T02:38:21.346Z,97015.97
2023-12-11T02:40:49.039Z,97007.16
2023-12-11T02:43:18.148Z,97024.78
2023-12-11T02:45:45.982Z,97023.59
2023-12-11T02:48:13.792Z,97050.63
2023-12-11T02:50:41.469Z,97055.78
2023-12-11T02:53:09.151Z,97036.53
2023-12-11T02:55:36.992Z,97041.41
2023-12-11T02:58:05.426Z,97035.66
2023-12-11T03:00:34.679Z,97025.84
2023-12-11T03:03:02.588Z,97028.88
2023-12-11T03:05:30.576Z,97040.94
2023-12-11T03:07:58.201Z,97053.94
2023-12-11T03:10:25.881Z,97049.03
2023-12-11T03:12:53.645Z,97052.28
2023-12-11T03:15:21.487Z,97036.03
2023-12-11T03:17:50.616Z,97037.38
2023-12-11T03:20:18.429Z,97035.69
2023-12-11T03:22:46.083Z,97046.66
2023-12-11T03:25:13.907Z,97038.75
2023-12-11T03:27:41.577Z,97046.22
2023-12-11T03:30:09.936Z,97041.63
2023-12-11T03:32:38.080Z,97048.25
2023-12-11T03:35:07.863Z,97041.94
2023-12-11T03:37:35.525Z,97042.09
2023-12-11T03:40:03.529Z,97054.66
2023-12-11T03:42:31.307Z,97017.88
2023-12-11T03:44:58.960Z,97011.69
2023-12-11T03:47:26.652Z,97012.53
2023-12-11T03:49:54.397Z,97020.84
2023-12-11T03:52:23.450Z,97011.06
2023-12-11T03:54:51.086Z,96981.66
2023-12-11T03:57:18.766Z,96970.97
2023-12-11T03:59:46.501Z,96972.72
2023-12-11T04:02:14.325Z,96960.56
2023-12-11T04:04:42.245Z,96967.03
2023-12-11T04:07:10.007Z,96964.25
2023-12-11T04:09:39.090Z,96961.00
2023-12-11T04:12:07.103Z,96952.34
2023-12-11T04:14:34.769Z,96953.44
2023-12-11T04:17:02.700Z,96945.22
2023-12-11T04:19:30.427Z,96939.81
2023-12-11T04:21:58.176Z,96945.06
2023-12-11T04:24:25.839Z,96947.91
2023-12-11T04:26:54.928Z,96963.22
2023-12-11T04:29:22.621Z,96974.88
2023-12-11T04:31:50.233Z,96954.97
2023-12-11T04:34:17.976Z,96950.59
2023-12-11T04:36:45.790Z,96947.06
2023-12-11T04:39:13.580Z,96930.88
2023-12-11T04:41:41.278Z,96913.88
2023-12-11T04:44:10.286Z,96917.44
2023-12-11T04:46:37.910Z,96908.19
2023-12-11T04:49:05.652Z,96911.47
2023-12-11T04:51:33.360Z,96909.16
2023-12-11T04:54:01.009Z,96905.28
2023-12-11T04:56:28.630Z,96903.53
2023-12-11T04:58:56.262Z,96903.28
2023-12-11T05:01:25.342Z,96900.00
2023-12-11T05:03:53.210Z,96898.66
2023-12-11T05:06:20.933Z,96901.28
2023-12-11T05:08:48.614Z,96882.56
2023-12-11T05:11:16.321Z,96892.44
2023-12-11T05:13:44.099Z,96902.44
2023-12-11T05:16:12.324Z,96896.25
2023-12-11T05:18:41.552Z,96913.91
2023-12-11T05:21:10.408Z,96919.34
2023-12-11T05:23:38.510Z,96927.56
2023-12-11T05:26:06.462Z,96921.44
2023-12-11T05:28:34.240Z,96935.06
2023-12-11T05:31:01.950Z,96942.75
2023-12-11T05:33:29.784Z,96938.13
2023-12-11T05:35:58.928Z,96910.50
2023-12-11T05:38:26.576Z,96899.25
2023-12-11T05:40:54.274Z,96895.81
2023-12-11T05:43:22.002Z,96882.25
2023-12-11T05:45:49.742Z,96891.28
2023-12-11T05:48:17.606Z,96891.84
2023-12-11T05:50:45.476Z,96890.13
2023-12-11T05:53:14.475Z,96886.94
2023-12-11T05:55:42.320Z,96877.56
2023-12-11T05:58:10.041Z,96864.50
2023-12-11T06:00:37.851Z,96854.47
2023-12-11T06:03:05.632Z,96856.03
2023-12-11T06:05:33.480Z,96842.69
2023-12-11T06:08:01.254Z,96839.44
2023-12-11T06:10:30.319Z,96826.06
2023-12-11T06:12:57.956Z,96818.91
2023-12-11T06:15:25.602Z,96810.00
2023-12-11T06:17:53.326Z,96822.16
2023-12-11T06:20:21.013Z,96837.03
2023-12-11T06:22:48.665Z,96844.22
2023-12-11T06:25:16.448Z,96843.09
2023-12-11T06:27:45.599Z,96831.66
2023-12-11T06:30:13.846Z,96859.56
2023-12-11T06:32:41.543Z,96872.97
2023-12-11T06:35:09.752Z,96878.44
2023-12-11T06:37:37.540Z,96885.28
2023-12-11T06:40:06.553Z,96897.13
2023-12-11T06:42:35.246Z,96904.44
2023-12-11T06:45:05.028Z,96898.22
2023-12-11T06:47:32.938Z,96895.94
2023-12-11T06:50:00.990Z,96881.19
2023-12-11T06:52:29.116Z,96856.28
2023-12-11T06:54:56.906Z,96844.00
2023-12-11T06:57:24.762Z,96826.88
2023-12-11T06:59:53.012Z,96826.66
2023-12-11T07:02:22.157Z,96798.25
2023-12-11T07:04:50.004Z,96815.56
2023-12-11T07:07:17.799Z,96817.84
2023-12-11T07:09:45.510Z,96813.28
2023-12-11T07:12:13.220Z,96830.94
2023-12-11T07:14:40.890Z,96821.66
2023-12-11T07:17:08.510Z,96790.94
2023-12-11T07:19:37.731Z,96795.25
2023-12-11T07:22:05.546Z,96791.94
2023-12-11T07:24:33.257Z,96799.75
2023-12-11T07:27:00.911Z,96813.66
2023-12-11T07:29:28.550Z,96844.66
2023-12-11T07:31:56.232Z,96840.09
2023-12-11T07:34:24.039Z,96837.97
2023-12-11T07:36:53.241Z,96843.91
2023-12-11T07:39:20.922Z,96841.75
2023-12-11T07:41:48.577Z,96840.09
2023-12-11T07:44:16.222Z,96846.69
2023-12-11T07:46:43.865Z,96832.84
2023-12-11T07:49:11.756Z,96823.06
2023-12-11T07:51:39.556Z,96831.16
2023-12-11T07:54:08.730Z,96826.84
2023-12-11T07:56:36.780Z,96843.25
2023-12-11T07:59:04.533Z,96847.91
2023-12-11T08:01:32.455Z,96850.38
2023-12-11T08:04:00.289Z,96849.84
2023-12-11T08:06:28.353Z,96855.94
2023-12-11T08:08:55.981Z,96853.19
2023-12-11T08:11:25.294Z,96842.50
2023-12-11T08:13:52.986Z,96845.91
2023-12-11T08:16:21.197Z,96825.94
2023-12-11T08:18:48.967Z,96818.16
2023-12-11T08:21:16.832Z,96824.47
2023-12-11T08:23:45.435Z,96835.84
2023-12-11T08:26:17.189Z,96831.53
2023-12-11T08:28:46.788Z,96815.19
2023-12-11T08:31:14.731Z,96835.06
2023-12-11T08:33:42.824Z,96830.59
2023-12-11T08:36:11.000Z,96814.63
2023-12-11T08:38:38.691Z,96812.34
2023-12-11T08:41:06.577Z,96810.72
2023-12-11T08:43:34.302Z,96804.13
2023-12-11T08:46:03.770Z,96803.50
2023-12-11T08:48:31.874Z,96793.88
2023-12-11T08:50:59.610Z,96803.69
2023-12-11T08:53:27.322Z,96808.94
2023-12-11T08:55:55.283Z,96833.94
2023-12-11T08:58:23.055Z,96824.00
2023-12-11T09:00:50.954Z,96813.25
2023-12-11T09:03:20.110Z,96820.13
2023-12-11T09:05:47.882Z,96808.38
2023-12-11T09:08:15.563Z,96813.09
2023-12-11T09:10:43.232Z,96830.94
2023-12-11T09:13:11.044Z,96833.63
2023-12-11T09:15:38.820Z,96836.66
2023-12-11T09:18:06.756Z,96829.91
2023-12-11T09:20:35.980Z,96825.38
2023-12-11T09:23:03.843Z,96820.78
2023-12-11T09:25:31.780Z,96811.63
2023-12-11T09:27:59.532Z,96810.09
2023-12-11T09:30:27.273Z,96802.81
2023-12-11T09:32:55.231Z,96799.72
2023-12-11T09:35:23.297Z,96812.41
2023-12-11T09:37:53.800Z,96814.31
2023-12-11T09:40:21.854Z,96810.84
2023-12-11T09:42:52.450Z,96811.59
2023-12-11T09:45:20.960Z,96814.34
2023-12-11T09:48:04.465Z,96800.84
2023-12-11T09:50:39.156Z,96801.94
2023-12-11T09:53:09.708Z,96800.72
2023-12-11T09:55:37.516Z,96802.75
2023-12-11T09:58:06.871Z,96799.38
2023-12-11T10:00:36.702Z,96796.22
2023-12-11T10:03:06.277Z,96791.66
2023-12-11T10:05:34.055Z,96782.00
2023-12-11T10:08:02.544Z,96790.50
2023-12-11T10:10:32.325Z,96777.81
2023-12-11T10:13:01.337Z,96764.00
2023-12-11T10:15:30.967Z,96770.53
2023-12-11T10:18:03.650Z,96774.06
2023-12-11T10:20:31.998Z,96771.31
2023-12-11T10:23:12.640Z,96784.28
2023-12-11T10:25:45.110Z,96787.78
2023-12-11T10:28:14.902Z,96799.88
2023-12-11T10:30:51.617Z,96793.00
2023-12-11T10:33:20.386Z,96779.16
2023-12-11T10:35:49.436Z,96775.69
2023-12-11T10:38:24.801Z,96772.47
2023-12-11T10:40:54.524Z,96780.44
2023-12-11T10:43:22.454Z,96793.84
2023-12-11T10:45:52.092Z,96790.81
2023-12-11T10:48:21.479Z,96798.91
2023-12-11T10:50:50.137Z,96782.84
2023-12-11T10:53:17.843Z,96776.53
2023-12-11T10:55:49.909Z,96780.78
2023-12-11T10:58:20.097Z,96780.78
2023-12-11T11:00:48.311Z,96763.06
2023-12-11T11:03:22.351Z,96764.50
2023-12-11T11:05:53.737Z,96765.91
2023-12-11T11:08:32.496Z,96761.28
2023-12-11T11:11:11.432Z,96760.84
2023-12-11T11:14:03.378Z,96757.34
2023-12-11T11:16:52.340Z,96760.69
2023-12-11T11:19:20.829Z,96741.19
2023-12-11T11:22:27.219Z,96735.03
2023-12-11T11:25:30.658Z,96727.56
2023-12-11T11:27:59.135Z,96734.03
2023-12-11T11:30:50.510Z,96714.38
2023-12-11T11:33:19.567Z,96730.09
2023-12-11T11:35:52.247Z,96729.69
2023-12-11T11:38:22.068Z,96732.72
2023-12-11T11:40:50.091Z,96738.13
2023-12-11T11:43:18.688Z,96725.91
2023-12-11T11:45:46.595Z,96720.16
2023-12-11T11:48:15.773Z,96719.22
2023-12-11T11:50:54.880Z,96727.59
2023-12-11T11:53:23.614Z,96724.97
2023-12-11T11:55:51.549Z,96718.81
2023-12-11T11:58:19.542Z,96717.59
2023-12-11T12:00:47.369Z,96721.25
2023-12-11T12:03:16.541Z,96724.63
2023-12-11T12:05:54.290Z,96718.47
2023-12-11T12:08:22.193Z,96730.91
2023-12-11T12:10:49.932Z,96721.38
2023-12-11T12:13:17.920Z,96730.41
2023-12-11T12:15:45.728Z,96719.59
2023-12-11T12:18:14.027Z,96715.03
2023-12-11T12:20:43.281Z,96711.03
2023-12-11T12:23:11.251Z,96722.44
2023-12-11T12:25:38.947Z,96714.34
2023-12-11T12:28:09.535Z,96707.47
2023-12-11T12:30:37.402Z,96708.16
2023-12-11T12:33:09.916Z,96714.69
2023-12-11T12:35:39.376Z,96724.69
2023-12-11T12:38:09.143Z,96740.28
2023-12-11T12:40:36.969Z,96727.09
2023-12-11T12:43:09.951Z,96739.44
2023-12-11T12:45:38.152Z,96751.50
2023-12-11T12:48:06.786Z,96740.06
2023-12-11T12:50:35.272Z,96742.19
2023-12-11T12:53:08.890Z,96754.66
2023-12-11T12:55:36.917Z,96775.84
2023-12-11T12:58:04.952Z,96795.38
2023-12-11T13:00:33.021Z,96796.53
2023-12-11T13:03:02.252Z,96793.94
2023-12-11T13:05:40.574Z,96794.97
2023-12-11T13:08:09.767Z,96797.38
2023-12-11T13:10:37.880Z,96799.72
2023-12-11T13:13:09.670Z,96798.03
2023-12-11T13:15:38.259Z,96798.69
2023-12-11T13:18:06.244Z,96798.25
2023-12-11T13:20:34.633Z,96801.69
2023-12-11T13:23:02.647Z,96801.06
2023-12-11T13:25:31.759Z,96806.94
2023-12-11T13:27:59.494Z,96809.06
2023-12-11T13:30:27.452Z,96812.84
2023-12-11T13:32:55.166Z,96796.97
2023-12-11T13:35:22.984Z,96795.28
2023-12-11T13:37:50.755Z,96793.78
2023-12-11T13:40:18.481Z,96796.63
2023-12-11T13:42:47.547Z,96805.25
2023-12-11T13:45:15.275Z,96806.66
2023-12-11T13:47:43.037Z,96829.72
2023-12-11T13:50:10.907Z,96830.31
2023-12-11T13:52:38.800Z,96823.81
2023-12-11T13:55:06.899Z,96829.22
2023-12-11T13:57:35.737Z,96829.50
2023-12-11T14:00:05.858Z,96828.63
2023-12-11T14:02:59.408Z,96828.03
2023-12-11T14:05:21.394Z,96818.06
2023-12-11T14:07:49.166Z,96821.19
2023-12-11T14:10:16.965Z,96827.28
2023-12-11T14:12:45.038Z,96835.63
2023-12-11T14:15:14.122Z,96839.72
2023-12-11T14:17:41.867Z,96834.75
2023-12-11T14:20:11.123Z,96852.41
2023-12-11T14:22:39.187Z,96853.25
2023-12-11T14:25:07.986Z,96854.44
2023-12-11T14:27:35.984Z,96851.84
2023-12-11T14:30:04.430Z,96855.13
2023-12-11T14:32:33.575Z,96861.28
2023-12-11T14:35:01.373Z,96881.16
2023-12-11T14:37:29.527Z,96881.09
2023-12-11T14:39:57.445Z,96867.72
2023-12-11T14:42:25.144Z,96873.91
2023-12-11T14:44:52.837Z,96884.13
2023-12-11T14:47:20.616Z,96893.09
2023-12-11T14:49:49.820Z,96887.84
2023-12-11T14:52:17.866Z,96887.06
2023-12-11T14:54:45.588Z,96889.53
2023-12-11T14:57:13.404Z,96900.97
2023-12-11T14:59:41.187Z,96904.06
2023-12-11T15:02:08.965Z,96910.06
2023-12-11T15:04:36.717Z,96908.78
2023-12-11T15:07:06.017Z,96915.06
2023-12-11T15:09:34.183Z,96909.06
2023-12-11T15:12:01.963Z,96904.03
2023-12-11T15:14:30.032Z,96903.94
2023-12-11T15:16:58.117Z,96916.94
2023-12-11T15:19:25.874Z,96920.72
2023-12-11T15:21:53.702Z,96928.19
2023-12-11T15:24:22.805Z,96935.97
2023-12-11T15:26:50.553Z,96935.66
2023-12-11T15:29:18.243Z,96940.66
2023-12-11T15:31:45.939Z,96946.97
2023-12-11T15:34:13.778Z,96948.44
2023-12-11T15:36:41.557Z,96940.19
2023-12-11T15:39:10.116Z,96952.56
2023-12-11T15:41:39.139Z,96944.81
2023-12-11T15:44:06.863Z,96956.44
2023-12-11T15:46:34.659Z,96965.09
2023-12-11T15:49:02.524Z,96964.84
2023-12-11T15:51:30.327Z,96947.94
2023-12-11T15:53:58.037Z,96951.72
2023-12-11T15:56:25.766Z,96957.09
2023-12-11T15:58:55.032Z,96955.34
2023-12-11T16:01:22.815Z,96951.84
2023-12-11T16:03:50.665Z,96945.50
2023-12-11T16:06:18.460Z,96953.56
2023-12-11T16:08:46.412Z,96950.75
2023-12-11T16:11:14.668Z,96947.25
2023-12-11T16:13:42.937Z,96937.16
2023-12-11T16:16:13.300Z,96943.53
2023-12-11T16:18:42.181Z,96949.22
2023-12-11T16:21:10.216Z,96952.41
2023-12-11T16:23:37.972Z,96952.00
2023-12-11T16:26:12.130Z,96950.97
2023-12-11T16:28:39.937Z,96959.69
2023-12-11T16:31:07.915Z,96974.97
2023-12-11T16:33:37.151Z,96978.31
2023-12-11T16:36:11.903Z,96979.16
2023-12-11T16:38:39.652Z,96979.88
2023-12-11T16:41:07.472Z,96981.66
2023-12-11T16:43:36.979Z,96982.41
2023-12-11T16:46:05.604Z,96971.75
2023-12-11T16:48:38.136Z,96966.78
2023-12-11T16:51:06.188Z,96977.00
2023-12-11T16:53:33.900Z,96978.56
2023-12-11T16:56:01.647Z,96979.69
2023-12-11T16:58:29.391Z,96978.16
2023-12-11T17:00:57.099Z,96983.16
2023-12-11T17:03:24.876Z,96991.50
2023-12-11T17:05:53.950Z,96984.31
2023-12-11T17:08:21.675Z,96988.25
2023-12-11T17:10:49.562Z,96986.72
2023-12-11T17:13:17.298Z,96976.84
2023-12-11T17:15:45.056Z,96981.47
2023-12-11T17:18:12.814Z,96979.28
2023-12-11T17:20:40.549Z,96979.56
2023-12-11T17:23:09.587Z,96974.38
2023-12-11T17:25:37.304Z,96960.13
2023-12-11T17:28:05.972Z,96963.72
2023-12-11T17:30:33.822Z,96966.28
2023-12-11T17:33:01.561Z,96950.19
2023-12-11T17:35:29.298Z,96948.44
2023-12-11T17:37:57.019Z,96942.25
2023-12-11T17:40:26.120Z,96957.94
2023-12-11T17:42:53.905Z,96962.06
2023-12-11T17:45:24.914Z,96960.06
2023-12-11T17:47:54.030Z,96957.09
2023-12-11T17:50:21.794Z,96956.31
2023-12-11T17:52:49.544Z,96949.81
2023-12-11T17:55:17.343Z,96939.69
2023-12-11T17:57:46.551Z,96951.28
2023-12-11T18:00:15.350Z,96961.53
2023-12-11T18:02:43.038Z,96965.81
2023-12-11T18:05:10.979Z,96970.44
2023-12-11T18:07:38.845Z,96974.69
2023-12-11T18:10:06.916Z,96980.44
2023-12-11T18:12:34.663Z,96968.91
2023-12-11T18:15:04.427Z,96962.38
2023-12-11T18:17:32.236Z,96970.44
2023-12-11T18:20:00.261Z,96978.88
2023-12-11T18:22:28.175Z,96978.09
2023-12-11T18:24:55.993Z,96984.19
2023-12-11T18:27:23.728Z,96990.34
2023-12-11T18:29:51.628Z,96984.63
2023-12-11T18:32:20.690Z,96981.94
2023-12-11T18:34:54.525Z,96993.00
2023-12-11T18:37:22.939Z,96996.53
2023-12-11T18:39:50.680Z,96987.34
2023-12-11T18:42:18.553Z,96989.59
2023-12-11T18:44:46.305Z,96990.44
2023-12-11T18:47:14.125Z,96990.41
2023-12-11T18:49:43.846Z,96980.03
2023-12-11T18:52:11.822Z,96990.66
2023-12-11T18:54:40.085Z,96981.97
2023-12-11T18:57:08.158Z,96977.25
2023-12-11T18:59:36.067Z,96992.28
2023-12-11T19:02:04.302Z,96997.16
2023-12-11T19:04:32.206Z,96981.44
2023-12-11T19:07:01.516Z,96984.91
2023-12-11T19:09:29.248Z,96982.91
2023-12-11T19:11:57.258Z,96980.19
2023-12-11T19:14:25.033Z,96981.38
2023-12-11T19:16:52.807Z,96985.66
2023-12-11T19:19:20.652Z,96987.28
2023-12-11T19:21:48.434Z,96991.63
2023-12-11T19:24:17.502Z,96995.41
2023-12-11T19:26:45.288Z,97002.31
2023-12-11T19:29:13.090Z,96985.66
2023-12-11T19:31:42.088Z,96978.56
2023-12-11T19:34:10.795Z,96975.59
2023-12-11T19:36:40.662Z,96973.69
2023-12-11T19:39:08.575Z,96970.28
2023-12-11T19:41:37.671Z,96975.53
2023-12-11T19:44:05.346Z,96991.53
2023-12-11T19:46:33.086Z,96993.09
2023-12-11T19:49:00.934Z,96994.06
2023-12-11T19:51:28.686Z,96996.22
2023-12-11T19:53:56.864Z,96997.34
2023-12-11T19:56:24.581Z,97002.88
2023-12-11T19:58:53.724Z,96995.84
2023-12-11T20:01:28.166Z,97007.53
2023-12-11T20:03:56.351Z,97004.66
2023-12-11T20:06:24.756Z,97020.19
2023-12-11T20:08:52.513Z,97018.88
2023-12-11T20:11:21.136Z,97019.97
2023-12-11T20:13:50.730Z,97026.38
2023-12-11T20:16:19.920Z,97019.81
2023-12-11T20:18:47.799Z,97022.75
2023-12-11T20:21:15.536Z,97020.78
2023-12-11T20:23:43.289Z,97021.34
2023-12-11T20:26:11.030Z,97028.09
2023-12-11T20:28:38.734Z,97032.81
2023-12-11T20:31:07.909Z,97033.63
2023-12-11T20:33:38.137Z,97037.00
2023-12-11T20:36:13.829Z,97027.91
2023-12-11T20:38:41.655Z,97022.13
2023-12-11T20:41:17.631Z,97019.38
2023-12-11T20:43:45.377Z,97033.59
2023-12-11T20:46:13.120Z,97051.94
2023-12-11T20:48:42.228Z,97052.75
2023-12-11T20:51:09.984Z,97065.75
2023-12-11T20:53:37.658Z,97071.50
2023-12-11T20:56:05.914Z,97076.13
2023-12-11T20:58:34.717Z,97070.75
2023-12-11T21:01:02.519Z,97073.41
2023-12-11T21:03:30.328Z,97076.84
2023-12-11T21:05:59.479Z,97076.78
2023-12-11T21:08:27.284Z,97075.25
2023-12-11T21:10:54.971Z,97054.09
2023-12-11T21:13:22.737Z,97054.78
2023-12-11T21:15:53.024Z,97046.78
2023-12-11T21:18:21.822Z,97042.22
2023-12-11T21:20:49.541Z,97043.06
2023-12-11T21:23:18.590Z,97043.81
2023-12-11T21:25:46.438Z,97062.25
2023-12-11T21:28:14.314Z,97068.44
2023-12-11T21:30:42.266Z,97059.66
2023-12-11T21:33:10.071Z,97050.47
2023-12-11T21:35:37.803Z,97032.44
2023-12-11T21:38:05.519Z,97033.22
2023-12-11T21:40:34.596Z,97034.78
2023-12-11T21:43:02.365Z,97037.84
2023-12-11T21:45:30.106Z,97039.75
2023-12-11T21:47:57.869Z,97038.94
2023-12-11T21:50:25.617Z,97041.25
2023-12-11T21:52:53.284Z,97042.78
2023-12-11T21:55:20.996Z,97042.81
2023-12-11T21:57:50.106Z,97044.72
2023-12-11T22:00:18.263Z,97050.06
2023-12-11T22:02:45.972Z,97045.84
2023-12-11T22:05:13.726Z,97043.53
2023-12-11T22:07:41.766Z,97053.50
2023-12-11T22:10:09.565Z,97059.94
2023-12-11T22:12:37.289Z,97044.31
2023-12-11T22:15:07.286Z,97038.03
2023-12-11T22:17:35.380Z,97047.31
2023-12-11T22:20:03.673Z,97025.13
2023-12-11T22:22:31.500Z,97017.63
2023-12-11T22:24:59.246Z,97024.72
2023-12-11T22:27:26.979Z,97020.09
2023-12-11T22:29:54.690Z,97006.34
2023-12-11T22:32:23.726Z,96998.72
2023-12-11T22:34:51.560Z,96969.38
2023-12-11T22:37:19.471Z,96969.28
2023-12-11T22:39:47.217Z,96974.28
2023-12-11T22:42:14.975Z,96956.47
2023-12-11T22:44:43.357Z,96971.09
2023-12-11T22:47:12.241Z,96988.44
2023-12-11T22:49:41.288Z,96995.03
2023-12-11T22:52:09.082Z,96994.44
2023-12-11T22:54:36.826Z,96999.47
2023-12-11T22:57:04.956Z,96986.41
2023-12-11T22:59:32.706Z,96982.66
2023-12-11T23:02:03.423Z,96976.41
2023-12-11T23:04:32.067Z,96980.16
2023-12-11T23:07:01.161Z,96981.56
2023-12-11T23:09:28.862Z,96995.72
2023-12-11T23:11:56.545Z,96989.53
2023-12-11T23:14:24.284Z,96992.56
2023-12-11T23:16:51.998Z,96990.56
2023-12-11T23:19:19.816Z,96973.16
2023-12-11T23:21:50.027Z,96976.84
2023-12-11T23:24:19.201Z,96991.38
2023-12-11T23:26:46.901Z,97006.28
2023-12-11T23:29:14.584Z,96997.66
2023-12-11T23:31:42.294Z,96980.41
2023-12-11T23:34:10.033Z,96966.09
2023-12-11T23:36:37.773Z,96942.63
2023-12-11T23:39:05.472Z,96943.47
2023-12-11T23:41:37.503Z,96968.97
2023-12-11T23:44:05.203Z,96971.56
2023-12-11T23:46:32.973Z,96985.56
2023-12-11T23:49:00.835Z,96996.34
2023-12-11T23:51:28.544Z,97015.25
2023-12-11T23:53:56.190Z,97013.34
2023-12-11T23:56:23.881Z,96998.03
2023-12-11T23:58:52.907Z,96989.63
